Time;durP1;ratioP1;P1;durP2;ratioP2;P2;SDS_P1;SDS_P2;PMS_P1;PMS_P2;Temp;Humidity;BMP_temperature;BMP_pressure;BME280_temperature;BME280_humidity;BME280_pressure;Samples;Min_cycle;Max_cycle;Signal;HPM_P1;HPM_P2
2023/03/10 00:00:10;;;;;;;3.80;2.25;;;;;;;;;;10418531;27;20571;-59
2023/03/10 00:05:10;;;;;;;5.10;2.30;;;;;;;;;;10417563;27;20496;-59
2023/03/10 00:10:10;;;;;;;2.05;1.92;;;;;;;;;;10419243;27;20473;-59
2023/03/10 00:15:09;;;;;;;3.05;2.65;;;;;;;;;;10419095;27;20087;-58
2023/03/10 00:20:10;;;;;;;2.85;1.88;;;;;;;;;;10418475;27;20075;-58
2023/03/10 00:25:11;;;;;;;2.50;2.30;;;;;;;;;;10417631;27;20066;-58
2023/03/10 00:30:10;;;;;;;3.47;3.17;;;;;;;;;;10418250;27;20078;-58
2023/03/10 00:35:08;;;;;;;2.70;2.50;;;;;;;;;;10415808;27;20093;-57
2023/03/10 00:40:08;;;;;;;3.10;2.80;;;;;;;;;;10416473;27;20079;-58
2023/03/10 00:45:09;;;;;;;2.90;2.13;;;;;;;;;;10415997;27;20067;-58
2023/03/10 00:50:07;;;;;;;2.22;2.03;;;;;;;;;;10416768;27;20086;-58
2023/03/10 00:55:06;;;;;;;3.33;3.03;;;;;;;;;;10417352;27;20087;-57
2023/03/10 01:00:07;;;;;;;3.25;2.47;;;;;;;;;;10412628;27;20470;-58
2023/03/10 01:05:07;;;;;;;3.55;2.58;;;;;;;;;;10415318;27;20608;-59
2023/03/10 01:10:05;;;;;;;4.28;3.40;;;;;;;;;;10416566;27;20077;-58
2023/03/10 01:15:04;;;;;;;3.75;3.35;;;;;;;;;;10414563;27;20081;-58
2023/03/10 01:20:07;;;;;;;5.88;4.93;;;;;;;;;;10419667;27;20492;-59
2023/03/10 01:25:07;;;;;;;5.93;5.32;;;;;;;;;;10414195;27;20074;-58
2023/03/10 01:30:08;;;;;;;3.72;3.25;;;;;;;;;;10414158;27;20884;-59
2023/03/10 01:35:06;;;;;;;4.78;3.13;;;;;;;;;;10415955;27;20503;-59
2023/03/10 01:40:08;;;;;;;3.25;2.90;;;;;;;;;;10414451;27;20480;-58
2023/03/10 01:45:09;;;;;;;3.65;2.88;;;;;;;;;;10411936;27;20512;-58
2023/03/10 01:50:09;;;;;;;3.42;2.92;;;;;;;;;;10410855;27;20081;-58
2023/03/10 01:55:09;;;;;;;3.08;2.70;;;;;;;;;;10411185;27;20082;-59
2023/03/10 02:00:12;;;;;;;2.72;2.33;;;;;;;;;;10418545;27;20529;-59
2023/03/10 02:05:15;;;;;;;2.67;2.42;;;;;;;;;;10414855;27;20896;-57
2023/03/10 02:10:14;;;;;;;3.15;2.60;;;;;;;;;;10413560;27;20051;-56
2023/03/10 02:15:14;;;;;;;2.88;2.67;;;;;;;;;;10414357;27;20094;-57
2023/03/10 02:20:26;;;;;;;3.38;2.88;;;;;;;;;;10412401;27;20489;-57
2023/03/10 02:25:30;;;;;;;2.95;2.35;;;;;;;;;;10416202;27;20420;-58
2023/03/10 02:30:31;;;;;;;3.10;2.47;;;;;;;;;;10409984;27;20086;-58
2023/03/10 02:35:30;;;;;;;2.38;2.25;;;;;;;;;;10411362;28;20070;-58
2023/03/10 02:40:36;;;;;;;3.03;2.17;;;;;;;;;;10414303;28;20044;-59
2023/03/10 02:45:50;;;;;;;4.25;3.17;;;;;;;;;;10409475;28;20043;-58
2023/03/10 02:50:49;;;;;;;4.05;2.60;;;;;;;;;;10412194;27;20081;-60
2023/03/10 02:55:50;;;;;;;4.30;2.90;;;;;;;;;;10411912;28;20479;-58
2023/03/10 03:00:50;;;;;;;4.57;3.25;;;;;;;;;;10412800;28;20062;-57
2023/03/10 03:05:50;;;;;;;3.30;2.47;;;;;;;;;;10418854;27;20078;-58
2023/03/10 03:10:49;;;;;;;2.10;1.90;;;;;;;;;;10416541;27;20078;-57
2023/03/10 03:15:47;;;;;;;4.75;4.30;;;;;;;;;;10419372;27;20106;-58
2023/03/10 03:20:48;;;;;;;5.18;3.10;;;;;;;;;;10417224;27;20085;-57
2023/03/10 03:25:46;;;;;;;4.80;4.40;;;;;;;;;;10421782;27;20035;-58
2023/03/10 03:30:48;;;;;;;2.97;2.70;;;;;;;;;;10419434;27;20094;-58
2023/03/10 03:35:48;;;;;;;2.90;2.58;;;;;;;;;;10419736;27;20064;-58
2023/03/10 03:40:48;;;;;;;4.00;3.60;;;;;;;;;;10426582;27;20043;-58
2023/03/10 03:45:50;;;;;;;3.55;2.70;;;;;;;;;;10418464;27;20079;-58
2023/03/10 03:50:50;;;;;;;3.60;3.17;;;;;;;;;;10417339;27;20052;-59
2023/03/10 03:55:57;;;;;;;4.13;3.53;;;;;;;;;;10417713;27;20055;-57
2023/03/10 04:01:00;;;;;;;5.22;3.85;;;;;;;;;;10429180;27;20195;-57
2023/03/10 04:06:05;;;;;;;;;;;;;;;;;;10416587;27;20058;-58
2023/03/10 04:11:04;;;;;;;3.50;3.20;;;;;;;;;;10419621;27;19959;-57
2023/03/10 04:16:05;;;;;;;3.85;3.00;;;;;;;;;;10418001;27;20086;-57
2023/03/10 04:21:07;;;;;;;5.93;3.55;;;;;;;;;;10418058;27;20052;-57
2023/03/10 04:26:08;;;;;;;5.18;4.65;;;;;;;;;;10416078;27;20075;-57
2023/03/10 04:31:12;;;;;;;2.53;2.33;;;;;;;;;;10425983;27;20062;-56
2023/03/10 04:36:11;;;;;;;4.70;3.10;;;;;;;;;;10416781;27;20075;-58
2023/03/10 04:41:11;;;;;;;3.63;3.33;;;;;;;;;;10415544;27;20104;-58
2023/03/10 04:46:13;;;;;;;2.85;2.50;;;;;;;;;;10423882;27;20079;-60
2023/03/10 04:51:12;;;;;;;3.30;3.00;;;;;;;;;;10416622;27;20078;-58
2023/03/10 04:56:23;;;;;;;7.28;5.60;;;;;;;;;;10412012;27;20074;-58
2023/03/10 05:01:22;;;;;;;3.50;3.00;;;;;;;;;;10415772;27;20071;-57
2023/03/10 05:06:27;;;;;;;;;;;;;;;;;;10415198;27;20071;-59
2023/03/10 05:11:42;;;;;;;8.68;4.13;;;;;;;;;;10416575;27;19958;-58
2023/03/10 05:16:42;;;;;;;7.68;3.08;;;;;;;;;;10417678;27;20086;-59
2023/03/10 05:21:41;;;;;;;5.10;3.38;;;;;;;;;;10413925;27;20071;-58
2023/03/10 05:26:40;;;;;;;3.13;2.83;;;;;;;;;;10411466;27;20464;-58
2023/03/10 05:31:40;;;;;;;4.50;3.75;;;;;;;;;;10414483;27;20079;-57
2023/03/10 05:36:43;;;;;;;6.75;3.60;;;;;;;;;;10409683;27;20083;-57
2023/03/10 05:41:42;;;;;;;3.10;2.80;;;;;;;;;;10412410;27;20531;-58
2023/03/10 05:46:41;;;;;;;3.42;2.60;;;;;;;;;;10413828;27;20078;-49
2023/03/10 05:51:40;;;;;;;2.97;2.08;;;;;;;;;;10410750;27;20505;-57
2023/03/10 05:56:38;;;;;;;3.10;2.70;;;;;;;;;;10411844;27;20079;-57
2023/03/10 06:01:37;;;;;;;3.35;2.60;;;;;;;;;;10404320;27;20471;-56
2023/03/10 06:06:37;;;;;;;4.25;3.13;;;;;;;;;;10413123;27;20550;-57
2023/03/10 06:11:35;;;;;;;7.75;5.50;;;;;;;;;;10414663;27;20061;-55
2023/03/10 06:16:33;;;;;;;6.25;5.55;;;;;;;;;;10415873;27;20075;-56
2023/03/10 06:21:32;;;;;;;17.08;15.40;;;;;;;;;;10413888;27;20492;-55
2023/03/10 06:26:31;;;;;;;10.05;7.85;;;;;;;;;;10410099;27;20511;-57
2023/03/10 06:31:30;;;;;;;6.28;4.00;;;;;;;;;;10409578;27;20441;-57
2023/03/10 06:36:30;;;;;;;5.30;4.80;;;;;;;;;;10412927;28;20082;-56
2023/03/10 06:41:28;;;;;;;5.43;4.93;;;;;;;;;;10418182;27;20573;-56
2023/03/10 06:46:28;;;;;;;4.88;4.00;;;;;;;;;;10421264;27;20079;-53
2023/03/10 06:51:27;;;;;;;7.25;6.55;;;;;;;;;;10411107;27;20441;-57
2023/03/10 06:56:25;;;;;;;5.53;3.10;;;;;;;;;;10415837;27;20074;-55
2023/03/10 07:01:24;;;;;;;6.05;4.75;;;;;;;;;;10420019;27;20539;-57
2023/03/10 07:06:24;;;;;;;5.53;2.70;;;;;;;;;;10420522;27;20090;-58
2023/03/10 07:11:22;;;;;;;7.65;6.95;;;;;;;;;;10416196;27;20075;-56
2023/03/10 07:16:21;;;;;;;5.80;4.43;;;;;;;;;;10410231;27;20079;-56
2023/03/10 07:21:20;;;;;;;6.13;5.13;;;;;;;;;;10410412;27;20097;-57
2023/03/10 07:26:19;;;;;;;4.10;3.03;;;;;;;;;;10421511;27;20074;-57
2023/03/10 07:31:18;;;;;;;4.97;4.03;;;;;;;;;;10418519;27;20063;-58
2023/03/10 07:36:17;;;;;;;7.50;4.80;;;;;;;;;;10416537;27;20108;-60
2023/03/10 07:41:16;;;;;;;4.55;4.13;;;;;;;;;;10413731;27;20063;-57
2023/03/10 07:46:16;;;;;;;6.90;3.17;;;;;;;;;;10410531;27;20540;-58
2023/03/10 07:51:14;;;;;;;3.88;2.35;;;;;;;;;;10415641;27;20100;-59
2023/03/10 07:56:13;;;;;;;7.85;3.20;;;;;;;;;;10416124;27;20082;-57
2023/03/10 08:01:14;;;;;;;8.75;7.82;;;;;;;;;;10414062;27;20078;-59
2023/03/10 08:06:17;;;;;;;3.13;2.83;;;;;;;;;;10413386;27;20079;-59
2023/03/10 08:11:16;;;;;;;6.50;3.42;;;;;;;;;;10412922;27;20086;-58
2023/03/10 08:16:14;;;;;;;4.05;3.50;;;;;;;;;;10405982;27;20067;-57
2023/03/10 08:21:12;;;;;;;7.07;3.00;;;;;;;;;;10414314;27;20083;-59
2023/03/10 08:26:13;;;;;;;4.18;3.00;;;;;;;;;;10418136;27;20086;-60
2023/03/10 08:31:12;;;;;;;5.93;3.47;;;;;;;;;;10412959;27;20082;-60
2023/03/10 08:36:12;;;;;;;4.32;3.92;;;;;;;;;;10414711;27;20093;-59
2023/03/10 08:41:13;;;;;;;2.92;2.63;;;;;;;;;;10418024;27;20083;-59
2023/03/10 08:46:12;;;;;;;13.75;5.75;;;;;;;;;;10415314;27;20058;-58
2023/03/10 08:51:11;;;;;;;12.65;3.50;;;;;;;;;;10413098;27;20063;-58
2023/03/10 08:56:14;;;;;;;3.95;3.22;;;;;;;;;;10412522;27;20083;-59
2023/03/10 09:01:13;;;;;;;6.00;3.40;;;;;;;;;;10412241;27;20075;-58
2023/03/10 09:06:11;;;;;;;3.72;2.95;;;;;;;;;;10411854;27;20062;-58
2023/03/10 09:11:10;;;;;;;2.45;2.20;;;;;;;;;;10414495;27;20547;-59
2023/03/10 09:16:10;;;;;;;2.47;2.03;;;;;;;;;;10412543;27;20505;-59
2023/03/10 09:21:10;;;;;;;6.25;3.28;;;;;;;;;;10405311;27;20493;-58
2023/03/10 09:26:08;;;;;;;4.63;3.67;;;;;;;;;;10406168;27;20082;-59
2023/03/10 09:31:07;;;;;;;5.28;3.42;;;;;;;;;;10410984;27;20067;-58
2023/03/10 09:36:07;;;;;;;6.95;6.03;;;;;;;;;;10414718;27;20074;-58
2023/03/10 09:41:14;;;;;;;2.13;1.90;;;;;;;;;;10415950;27;20081;-58
2023/03/10 09:46:15;;;;;;;4.80;2.47;;;;;;;;;;10413938;27;20504;-58
2023/03/10 09:51:16;;;;;;;5.20;2.67;;;;;;;;;;10412024;27;20083;-58
2023/03/10 09:56:16;;;;;;;3.80;2.28;;;;;;;;;;10404338;27;20476;-59
2023/03/10 10:01:16;;;;;;;1.60;1.50;;;;;;;;;;10417751;27;20058;-59
2023/03/10 10:06:18;;;;;;;4.13;1.88;;;;;;;;;;10408590;27;20074;-59
2023/03/10 10:11:17;;;;;;;2.97;2.63;;;;;;;;;;10406209;27;20067;-59
2023/03/10 10:16:20;;;;;;;1.90;1.70;;;;;;;;;;10412071;27;20157;-58
2023/03/10 10:21:38;;;;;;;5.78;2.40;;;;;;;;;;10404572;27;20075;-57
2023/03/10 10:26:39;;;;;;;3.00;2.33;;;;;;;;;;10412807;27;20082;-59
2023/03/10 10:31:38;;;;;;;5.25;3.28;;;;;;;;;;10411248;27;20070;-59
2023/03/10 10:36:47;;;;;;;3.50;2.15;;;;;;;;;;10413098;27;20085;-59
2023/03/10 10:41:45;;;;;;;8.40;2.30;;;;;;;;;;10410653;28;20051;-59
2023/03/10 10:46:50;;;;;;;3.63;1.80;;;;;;;;;;10413114;28;20074;-59
2023/03/10 10:52:00;;;;;;;6.60;2.90;;;;;;;;;;10402995;28;20509;-59
2023/03/10 10:56:59;;;;;;;5.07;4.40;;;;;;;;;;10408109;28;20078;-59
2023/03/10 11:01:58;;;;;;;3.42;2.13;;;;;;;;;;10411478;27;20655;-58
2023/03/10 11:07:11;;;;;;;3.22;2.33;;;;;;;;;;10410722;28;20509;-59
2023/03/10 11:12:16;;;;;;;7.55;4.70;;;;;;;;;;10407693;28;20080;-58
2023/03/10 11:17:14;;;;;;;;;;;;;;;;;;10411854;28;20523;-59
2023/03/10 11:22:21;;;;;;;3.38;1.70;;;;;;;;;;10405073;28;19951;-59
2023/03/10 11:27:24;;;;;;;3.15;1.35;;;;;;;;;;10410663;27;20071;-59
2023/03/10 11:32:29;;;;;;;4.20;1.48;;;;;;;;;;10412016;27;20074;-59
2023/03/10 11:37:31;;;;;;;3.88;1.52;;;;;;;;;;10411385;27;20071;-57
2023/03/10 11:42:31;;;;;;;6.68;3.30;;;;;;;;;;10416092;27;20074;-58
2023/03/10 11:47:35;;;;;;;1.85;1.58;;;;;;;;;;10410848;27;20071;-59
2023/03/10 11:52:34;;;;;;;4.13;2.67;;;;;;;;;;10413578;27;20071;-59
2023/03/10 11:57:35;;;;;;;5.00;2.20;;;;;;;;;;10418065;27;20341;-57
2023/03/10 12:02:34;;;;;;;3.55;1.80;;;;;;;;;;10419018;27;20117;-58
2023/03/10 12:07:36;;;;;;;3.20;1.90;;;;;;;;;;10419137;27;20073;-57
2023/03/10 12:12:36;;;;;;;6.57;2.50;;;;;;;;;;10418128;27;20086;-58
2023/03/10 12:17:41;;;;;;;4.05;2.10;;;;;;;;;;10415265;27;20067;-59
2023/03/10 12:22:41;;;;;;;4.95;1.90;;;;;;;;;;10407211;27;20513;-59
2023/03/10 12:27:54;;;;;;;2.95;1.63;;;;;;;;;;10407431;27;20068;-59
2023/03/10 12:32:52;;;;;;;3.35;2.03;;;;;;;;;;10412712;27;20063;-59
2023/03/10 12:38:11;;;;;;;4.47;1.92;;;;;;;;;;10413648;27;20469;-58
2023/03/10 12:43:24;;;;;;;5.85;3.03;;;;;;;;;;10412026;27;20075;-58
2023/03/10 12:48:23;;;;;;;4.70;2.88;;;;;;;;;;10413847;27;20083;-58
2023/03/10 12:53:27;;;;;;;1.80;1.38;;;;;;;;;;10416993;27;20067;-58
2023/03/10 12:58:27;;;;;;;2.47;1.70;;;;;;;;;;10411315;27;20079;-58
2023/03/10 13:03:27;;;;;;;2.03;1.60;;;;;;;;;;10415333;27;20066;-58
2023/03/10 13:08:31;;;;;;;2.58;2.38;;;;;;;;;;10413099;27;20086;-58
2023/03/10 13:13:31;;;;;;;3.85;1.80;;;;;;;;;;10413278;27;20070;-59
2023/03/10 13:18:29;;;;;;;3.25;1.45;;;;;;;;;;10414574;27;20074;-59
2023/03/10 13:23:33;;;;;;;25.02;3.47;;;;;;;;;;10411563;27;20150;-58
2023/03/10 13:28:33;;;;;;;3.20;1.90;;;;;;;;;;10413105;27;20070;-59
2023/03/10 13:33:31;;;;;;;2.22;1.70;;;;;;;;;;10406756;27;20505;-58
2023/03/10 13:38:44;;;;;;;3.58;2.78;;;;;;;;;;10412748;27;20077;-58
2023/03/10 13:43:43;;;;;;;2.92;2.00;;;;;;;;;;10412855;27;20422;-58
2023/03/10 13:48:42;;;;;;;3.83;2.60;;;;;;;;;;10415041;27;20075;-57
2023/03/10 13:53:40;;;;;;;9.15;6.22;;;;;;;;;;10414300;27;20063;-58
2023/03/10 13:58:40;;;;;;;3.75;2.75;;;;;;;;;;10414304;27;20535;-58
2023/03/10 14:03:38;;;;;;;9.00;2.80;;;;;;;;;;10404702;27;20077;-57
2023/03/10 14:08:36;;;;;;;4.55;3.03;;;;;;;;;;10408588;27;20078;-59
2023/03/10 14:13:45;;;;;;;7.25;3.80;;;;;;;;;;10409305;27;20071;-58
2023/03/10 14:18:43;;;;;;;8.98;3.90;;;;;;;;;;10407998;27;20500;-60
2023/03/10 14:23:41;;;;;;;9.55;5.13;;;;;;;;;;10405652;27;20065;-60
2023/03/10 14:28:40;;;;;;;10.50;7.35;;;;;;;;;;10409829;27;20067;-58
2023/03/10 14:33:40;;;;;;;10.55;5.07;;;;;;;;;;10411459;27;20066;-58
2023/03/10 14:38:39;;;;;;;8.60;6.45;;;;;;;;;;10411064;28;20070;-59
2023/03/10 14:43:37;;;;;;;31.70;16.77;;;;;;;;;;10408474;28;20079;-59
2023/03/10 14:48:38;;;;;;;57.50;32.33;;;;;;;;;;10412775;28;20103;-59
2023/03/10 14:53:38;;;;;;;15.00;9.85;;;;;;;;;;10412326;28;20501;-57
2023/03/10 14:58:41;;;;;;;8.85;4.05;;;;;;;;;;10414511;27;20512;-57
2023/03/10 15:03:40;;;;;;;6.60;3.58;;;;;;;;;;10421236;27;20070;-58
2023/03/10 15:08:39;;;;;;;10.13;8.85;;;;;;;;;;10420802;27;20511;-58
2023/03/10 15:13:38;;;;;;;7.30;6.20;;;;;;;;;;10420098;27;20071;-58
2023/03/10 15:18:36;;;;;;;8.50;5.28;;;;;;;;;;10418437;27;20079;-58
2023/03/10 15:23:34;;;;;;;6.78;4.75;;;;;;;;;;10414319;27;20063;-58
2023/03/10 15:28:34;;;;;;;28.80;18.17;;;;;;;;;;10417514;27;20533;-58
2023/03/10 15:33:33;;;;;;;16.08;11.48;;;;;;;;;;10418920;27;20067;-58
2023/03/10 15:38:32;;;;;;;10.23;8.30;;;;;;;;;;10417466;27;20063;-58
2023/03/10 15:43:30;;;;;;;5.70;3.88;;;;;;;;;;10419493;27;20062;-58
2023/03/10 15:48:29;;;;;;;5.45;3.70;;;;;;;;;;10417862;27;20067;-58
2023/03/10 15:53:27;;;;;;;6.68;5.63;;;;;;;;;;10420014;27;20067;-59
2023/03/10 15:58:25;;;;;;;7.88;3.13;;;;;;;;;;10418160;27;20098;-58
2023/03/10 16:03:24;;;;;;;6.05;4.15;;;;;;;;;;10418334;27;20063;-58
2023/03/10 16:08:23;;;;;;;6.97;5.18;;;;;;;;;;10416605;27;20528;-58
2023/03/10 16:13:22;;;;;;;8.93;5.20;;;;;;;;;;10416021;27;20066;-58
2023/03/10 16:18:21;;;;;;;34.00;30.40;;;;;;;;;;10418377;27;20136;-58
2023/03/10 16:23:20;;;;;;;28.25;23.95;;;;;;;;;;10417960;27;20086;-57
2023/03/10 16:28:20;;;;;;;12.27;11.00;;;;;;;;;;10418402;27;20075;-59
2023/03/10 16:33:18;;;;;;;16.50;13.80;;;;;;;;;;10416850;27;20074;-59
2023/03/10 16:38:16;;;;;;;11.45;8.73;;;;;;;;;;10417997;27;20477;-58
2023/03/10 16:43:16;;;;;;;14.05;11.70;;;;;;;;;;10417048;27;20067;-59
2023/03/10 16:48:15;;;;;;;7.20;6.05;;;;;;;;;;10415427;27;20078;-58
2023/03/10 16:53:14;;;;;;;7.90;7.10;;;;;;;;;;10417585;27;20527;-59
2023/03/10 16:58:14;;;;;;;11.35;8.60;;;;;;;;;;10411417;27;20090;-59
2023/03/10 17:03:12;;;;;;;7.70;6.43;;;;;;;;;;10412678;27;20078;-59
2023/03/10 17:08:12;;;;;;;23.48;20.23;;;;;;;;;;10415329;27;20082;-58
2023/03/10 17:13:10;;;;;;;43.72;32.33;;;;;;;;;;10415327;27;20071;-58
2023/03/10 17:18:08;;;;;;;21.45;18.85;;;;;;;;;;10414856;27;20052;-58
2023/03/10 17:23:07;;;;;;;30.23;26.17;;;;;;;;;;10412499;27;20088;-58
2023/03/10 17:28:07;;;;;;;28.25;25.33;;;;;;;;;;10409807;27;20078;-58
2023/03/10 17:33:05;;;;;;;10.40;9.48;;;;;;;;;;10413791;27;20623;-61
2023/03/10 17:38:03;;;;;;;6.57;5.15;;;;;;;;;;10411523;27;20456;-56
2023/03/10 17:43:01;;;;;;;9.40;7.05;;;;;;;;;;10409367;27;20082;-60
2023/03/10 17:48:21;;;;;;;18.50;10.75;;;;;;;;;;10419342;27;20423;-59
2023/03/10 17:53:19;;;;;;;26.83;21.38;;;;;;;;;;10407370;27;20078;-58
2023/03/10 17:58:18;;;;;;;19.45;14.38;;;;;;;;;;10407392;27;20739;-59
2023/03/10 18:03:18;;;;;;;12.20;8.70;;;;;;;;;;10411206;27;20059;-58
2023/03/10 18:08:18;;;;;;;14.73;12.98;;;;;;;;;;10409694;27;20157;-59
2023/03/10 18:13:16;;;;;;;16.77;14.98;;;;;;;;;;10412832;27;20071;-59
2023/03/10 18:18:15;;;;;;;17.52;12.98;;;;;;;;;;10411821;27;20070;-60
2023/03/10 18:23:13;;;;;;;13.38;9.73;;;;;;;;;;10411124;27;20074;-60
2023/03/10 18:28:15;;;;;;;13.55;9.70;;;;;;;;;;10406703;27;20067;-59
2023/03/10 18:33:13;;;;;;;11.85;9.70;;;;;;;;;;10411665;27;20074;-57
2023/03/10 18:38:12;;;;;;;19.45;10.55;;;;;;;;;;10411743;27;20524;-59
2023/03/10 18:43:10;;;;;;;12.43;8.38;;;;;;;;;;10399958;28;20075;-58
2023/03/10 18:48:10;;;;;;;14.07;8.65;;;;;;;;;;10408554;27;20072;-58
2023/03/10 18:53:08;;;;;;;12.70;8.63;;;;;;;;;;10401213;27;20074;-60
2023/03/10 18:58:07;;;;;;;9.00;8.02;;;;;;;;;;10411459;28;20083;-57
2023/03/10 19:03:05;;;;;;;8.00;7.20;;;;;;;;;;10408078;28;20476;-58
2023/03/10 19:08:05;;;;;;;9.32;7.75;;;;;;;;;;10409390;28;20066;-59
2023/03/10 19:13:04;;;;;;;10.70;8.95;;;;;;;;;;10409618;28;20074;-59
2023/03/10 19:18:02;;;;;;;11.32;9.38;;;;;;;;;;10410981;27;20063;-59
2023/03/10 19:23:00;;;;;;;23.77;17.63;;;;;;;;;;10403846;28;20077;-58
2023/03/10 19:28:00;;;;;;;95.97;58.65;;;;;;;;;;10410185;28;20075;-59
2023/03/10 19:32:58;;;;;;;153.13;96.70;;;;;;;;;;10411537;28;20547;-59
2023/03/10 19:37:56;;;;;;;267.00;169.38;;;;;;;;;;10407090;28;20105;-58
2023/03/10 19:42:55;;;;;;;299.63;186.80;;;;;;;;;;10402521;28;20063;-56
2023/03/10 19:48:08;;;;;;;157.25;98.32;;;;;;;;;;10415926;27;20063;-60
2023/03/10 19:53:07;;;;;;;74.43;66.43;;;;;;;;;;10417419;27;20559;-59
2023/03/10 19:58:05;;;;;;;34.90;31.75;;;;;;;;;;10410469;27;20083;-57
2023/03/10 20:03:05;;;;;;;36.97;31.83;;;;;;;;;;10409584;27;20070;-58
2023/03/10 20:08:03;;;;;;;33.15;26.48;;;;;;;;;;10415554;27;20528;-58
2023/03/10 20:13:01;;;;;;;22.17;15.32;;;;;;;;;;10417713;27;20101;-59
2023/03/10 20:18:00;;;;;;;20.75;13.25;;;;;;;;;;10419230;27;20528;-59
2023/03/10 20:22:59;;;;;;;33.30;22.00;;;;;;;;;;10416220;27;20059;-59
2023/03/10 20:27:58;;;;;;;22.60;15.65;;;;;;;;;;10416537;27;20803;-58
2023/03/10 20:32:56;;;;;;;15.00;11.38;;;;;;;;;;10414069;27;20157;-57
2023/03/10 20:37:55;;;;;;;19.83;13.48;;;;;;;;;;10413989;27;20063;-58
2023/03/10 20:42:56;;;;;;;15.35;10.73;;;;;;;;;;10414561;27;20071;-58
2023/03/10 20:47:54;;;;;;;11.52;9.27;;;;;;;;;;10412028;27;20059;-57
2023/03/10 20:52:52;;;;;;;12.60;7.03;;;;;;;;;;10412041;27;20075;-58
2023/03/10 20:57:51;;;;;;;9.82;5.32;;;;;;;;;;10412946;27;20086;-59
2023/03/10 21:02:52;;;;;;;5.50;4.25;;;;;;;;;;10415472;27;20063;-58
2023/03/10 21:07:50;;;;;;;5.55;4.95;;;;;;;;;;10413164;27;20075;-58
2023/03/10 21:12:49;;;;;;;7.15;5.22;;;;;;;;;;10414273;27;20082;-58
2023/03/10 21:17:47;;;;;;;7.43;4.85;;;;;;;;;;10416101;27;20066;-58
2023/03/10 21:22:47;;;;;;;6.95;4.30;;;;;;;;;;10414864;27;20070;-59
2023/03/10 21:27:46;;;;;;;8.23;4.47;;;;;;;;;;10410090;27;20074;-59
2023/03/10 21:32:45;;;;;;;5.95;4.07;;;;;;;;;;10410095;27;20071;-59
2023/03/10 21:37:45;;;;;;;4.72;3.53;;;;;;;;;;10409803;27;20520;-60
2023/03/10 21:42:45;;;;;;;8.88;3.90;;;;;;;;;;10413045;27;20070;-59
2023/03/10 21:47:43;;;;;;;5.97;4.13;;;;;;;;;;10408481;27;20080;-59
2023/03/10 21:52:42;;;;;;;8.40;4.95;;;;;;;;;;10405187;27;20066;-61
2023/03/10 21:57:40;;;;;;;14.20;7.28;;;;;;;;;;10412781;27;20079;-59
2023/03/10 22:02:39;;;;;;;9.23;5.97;;;;;;;;;;10412766;27;20071;-59
2023/03/10 22:07:38;;;;;;;13.80;9.50;;;;;;;;;;10405451;27;20071;-58
2023/03/10 22:12:36;;;;;;;16.60;9.35;;;;;;;;;;10410795;27;20524;-58
2023/03/10 22:17:35;;;;;;;9.75;5.88;;;;;;;;;;10413972;27;20066;-58
2023/03/10 22:22:34;;;;;;;10.52;4.78;;;;;;;;;;10409066;27;20074;-58
2023/03/10 22:27:32;;;;;;;4.95;3.83;;;;;;;;;;10407416;27;20070;-58
2023/03/10 22:32:30;;;;;;;3.67;3.28;;;;;;;;;;10408133;27;20087;-58
2023/03/10 22:37:29;;;;;;;10.00;6.70;;;;;;;;;;10407960;27;20484;-57
2023/03/10 22:42:28;;;;;;;19.85;10.02;;;;;;;;;;10408303;27;20070;-58
2023/03/10 22:47:26;;;;;;;13.43;8.05;;;;;;;;;;10409565;27;20064;-57
2023/03/10 22:52:25;;;;;;;8.38;5.38;;;;;;;;;;10408194;27;20097;-58
2023/03/10 22:57:23;;;;;;;7.35;5.20;;;;;;;;;;10407410;28;20574;-56
2023/03/10 23:02:22;;;;;;;9.85;5.63;;;;;;;;;;10407330;28;20098;-58
2023/03/10 23:07:20;;;;;;;13.25;8.50;;;;;;;;;;10408945;28;20078;-58
2023/03/10 23:12:19;;;;;;;24.25;12.15;;;;;;;;;;10413270;28;20071;-57
2023/03/10 23:17:17;;;;;;;15.07;9.32;;;;;;;;;;10407497;28;20075;-57
2023/03/10 23:22:16;;;;;;;12.00;8.02;;;;;;;;;;10419271;27;20156;-57
2023/03/10 23:27:14;;;;;;;9.95;5.60;;;;;;;;;;10420588;27;20066;-56
2023/03/10 23:32:13;;;;;;;8.52;6.10;;;;;;;;;;10419865;27;20074;-58
2023/03/10 23:37:11;;;;;;;7.10;4.53;;;;;;;;;;10420606;27;20079;-57
2023/03/10 23:42:10;;;;;;;6.78;4.50;;;;;;;;;;10419162;27;20075;-57
2023/03/10 23:47:08;;;;;;;8.10;4.35;;;;;;;;;;10419479;27;20071;-56
2023/03/10 23:52:07;;;;;;;5.68;3.90;;;;;;;;;;10420374;27;20075;-57
2023/03/10 23:57:05;;;;;;;6.15;4.97;;;;;;;;;;10420366;27;20067;-57
